createdAt,value
2023-05-22T00:03:53.301Z,72.75
2023-05-22T00:13:53.557Z,72.14
2023-05-22T00:23:53.828Z,69.18
2023-05-22T00:33:54.127Z,68.98
2023-05-22T00:43:54.095Z,70.12
2023-05-22T00:53:54.325Z,69.85
2023-05-22T01:03:54.623Z,69.71
2023-05-22T01:13:54.641Z,72.21
2023-05-22T01:23:54.898Z,75.38
2023-05-22T01:33:55.419Z,76.90
2023-05-22T01:43:55.366Z,78.46
2023-05-22T01:53:55.632Z,79.14
2023-05-22T02:03:55.668Z,81.11
2023-05-22T02:13:55.868Z,81.56
2023-05-22T02:23:56.187Z,81.59
2023-05-22T02:33:56.424Z,82.40
2023-05-22T02:43:56.718Z,81.19
2023-05-22T02:53:56.861Z,79.83
2023-05-22T03:03:57.091Z,81.33
2023-05-22T03:13:57.116Z,82.38
2023-05-22T03:23:57.160Z,82.12
2023-05-22T03:33:57.373Z,79.43
2023-05-22T03:43:57.539Z,76.72
2023-05-22T03:53:57.698Z,75.36
2023-05-22T04:03:57.879Z,73.09
2023-05-22T04:13:58.040Z,73.46
2023-05-22T04:23:58.200Z,74.98
2023-05-22T04:33:58.386Z,72.48
2023-05-22T04:43:58.543Z,74.71
2023-05-22T04:53:58.699Z,77.12
2023-05-22T05:03:58.886Z,77.62
2023-05-22T05:13:59.087Z,74.00
2023-05-22T05:23:59.263Z,68.97
2023-05-22T05:33:59.433Z,69.95
2023-05-22T05:43:59.608Z,70.73
2023-05-22T05:54:00.036Z,67.55
2023-05-22T06:04:00.096Z,66.28
2023-05-22T06:14:00.263Z,66.89
2023-05-22T06:24:00.456Z,68.17
2023-05-22T06:34:00.753Z,65.71
2023-05-22T06:44:00.716Z,65.42
2023-05-22T06:54:00.880Z,65.72
2023-05-22T07:04:01.038Z,62.97
2023-05-22T07:14:01.237Z,61.30
2023-05-22T07:24:01.424Z,61.57
2023-05-22T07:34:01.573Z,62.82
2023-05-22T07:44:01.754Z,61.80
2023-05-22T07:54:01.933Z,62.34
2023-05-22T08:04:02.312Z,62.58
2023-05-22T08:14:02.324Z,63.12
2023-05-22T08:24:02.507Z,60.10
2023-05-22T08:34:03.045Z,57.34
2023-05-22T08:44:02.811Z,56.68
2023-05-22T08:54:02.979Z,56.85
2023-05-22T09:04:03.238Z,56.63
2023-05-22T09:14:03.417Z,57.03
2023-05-22T09:24:03.601Z,58.04
2023-05-22T09:34:03.773Z,54.73
2023-05-22T09:44:03.962Z,54.38
2023-05-22T09:54:04.114Z,56.21
2023-05-22T10:04:04.320Z,53.98
2023-05-22T10:14:04.498Z,55.69
2023-05-22T10:24:04.686Z,53.96
2023-05-22T10:34:04.882Z,56.18
2023-05-22T10:44:05.122Z,52.07
2023-05-22T10:54:05.312Z,51.35
2023-05-22T11:04:05.504Z,46.33
2023-05-22T11:14:05.696Z,48.43
2023-05-22T11:24:05.872Z,47.25
2023-05-22T11:34:06.096Z,48.93
2023-05-22T11:44:06.310Z,49.10
2023-05-22T11:54:06.539Z,48.41
2023-05-22T12:04:06.789Z,49.65
2023-05-22T12:14:06.800Z,47.97
2023-05-22T12:24:06.970Z,47.08
2023-05-22T12:34:07.150Z,48.71
2023-05-22T12:44:07.320Z,49.13
2023-05-22T12:54:07.500Z,47.92
2023-05-22T13:04:07.713Z,43.54
2023-05-22T13:14:07.890Z,43.34
2023-05-22T13:24:08.095Z,41.67
2023-05-22T13:34:08.263Z,39.60
2023-05-22T13:44:08.429Z,39.37
2023-05-22T13:54:08.676Z,40.94
2023-05-22T14:04:08.787Z,41.45
2023-05-22T14:14:08.932Z,39.56
2023-05-22T14:24:09.108Z,42.02
2023-05-22T14:34:09.277Z,41.04
2023-05-22T14:44:09.461Z,40.70
2023-05-22T14:54:10.260Z,42.12
2023-05-22T15:04:09.829Z,37.93
2023-05-22T15:14:09.998Z,38.34
2023-05-22T15:24:10.181Z,40.92
2023-05-22T15:34:10.347Z,40.43
2023-05-22T15:44:10.512Z,38.54
2023-05-22T15:54:10.692Z,40.94
2023-05-22T16:04:10.876Z,44.16
2023-05-22T16:14:11.041Z,43.88
2023-05-22T16:24:11.224Z,41.77
2023-05-22T16:34:11.397Z,43.21
2023-05-22T16:44:11.554Z,46.42
2023-05-22T16:54:11.759Z,47.12
2023-05-22T17:04:11.993Z,49.52
2023-05-22T17:14:12.122Z,47.98
2023-05-22T17:24:14.567Z,49.79
2023-05-22T17:34:12.730Z,50.68
2023-05-22T17:44:12.909Z,46.61
2023-05-22T17:54:13.064Z,49.29
2023-05-22T18:04:13.330Z,51.50
2023-05-22T18:14:13.382Z,51.82
2023-05-22T18:24:13.647Z,54.35
2023-05-22T18:34:13.903Z,55.94
2023-05-22T18:44:13.971Z,56.30
2023-05-22T18:54:14.261Z,58.11
2023-05-22T19:04:14.486Z,59.36
2023-05-22T19:14:14.652Z,59.00
2023-05-22T19:24:14.806Z,57.43
2023-05-22T19:34:15.035Z,55.46
2023-05-22T19:44:15.455Z,54.29
2023-05-22T19:54:15.332Z,54.41
2023-05-22T20:04:15.524Z,52.82
2023-05-22T20:14:15.416Z,53.12
2023-05-22T20:24:15.842Z,52.55
2023-05-22T20:34:15.929Z,54.79
2023-05-22T20:44:15.971Z,55.29
2023-05-22T20:54:16.049Z,55.55
2023-05-22T21:04:16.322Z,57.17
2023-05-22T21:14:16.609Z,58.30
2023-05-22T21:24:16.460Z,60.36
2023-05-22T21:34:16.794Z,62.83
2023-05-22T21:44:16.802Z,65.67
2023-05-22T21:54:17.043Z,66.41
2023-05-22T22:04:17.212Z,63.87
2023-05-22T22:14:17.561Z,68.65
2023-05-22T22:24:17.610Z,69.29
2023-05-22T22:34:17.669Z,68.31
2023-05-22T22:44:17.893Z,65.10
2023-05-22T22:54:18.148Z,65.80
2023-05-22T23:04:18.496Z,68.65
2023-05-22T23:14:18.408Z,69.89
2023-05-22T23:24:18.574Z,69.38
2023-05-22T23:34:18.839Z,71.23
2023-05-22T23:44:19.136Z,71.53
2023-05-22T23:54:19.186Z,72.57
